sensor_id;sensor_type;location;lat;lon;timestamp;P1;durP1;ratioP1;P2;durP2;ratioP2
11988;SDS011;6054;50.966;7.094;2022-07-25T00:01:10;5.57;;;5.07;;
11988;SDS011;6054;50.966;7.094;2022-07-25T00:03:36;5.75;;;5.25;;
11988;SDS011;6054;50.966;7.094;2022-07-25T00:06:04;4.82;;;4.38;;
11988;SDS011;6054;50.966;7.094;2022-07-25T00:08:31;7.05;;;4.85;;
11988;SDS011;6054;50.966;7.094;2022-07-25T00:10:57;6.03;;;4.82;;
11988;SDS011;6054;50.966;7.094;2022-07-25T00:13:26;5.53;;;5.03;;
11988;SDS011;6054;50.966;7.094;2022-07-25T00:15:52;6.75;;;5.38;;
11988;SDS011;6054;50.966;7.094;2022-07-25T00:18:19;6.55;;;5.30;;
11988;SDS011;6054;50.966;7.094;2022-07-25T00:20:46;5.25;;;4.82;;
11988;SDS011;6054;50.966;7.094;2022-07-25T00:23:13;5.85;;;5.35;;
11988;SDS011;6054;50.966;7.094;2022-07-25T00:25:39;6.97;;;5.28;;
11988;SDS011;6054;50.966;7.094;2022-07-25T00:28:06;5.57;;;5.07;;
11988;SDS011;6054;50.966;7.094;2022-07-25T00:30:34;6.18;;;5.57;;
11988;SDS011;6054;50.966;7.094;2022-07-25T00:33:01;5.80;;;5.30;;
11988;SDS011;6054;50.966;7.094;2022-07-25T00:35:28;6.50;;;5.43;;
11988;SDS011;6054;50.966;7.094;2022-07-25T00:37:55;5.60;;;5.10;;
11988;SDS011;6054;50.966;7.094;2022-07-25T00:40:22;6.07;;;5.07;;
11988;SDS011;6054;50.966;7.094;2022-07-25T00:42:49;5.78;;;5.28;;
11988;SDS011;6054;50.966;7.094;2022-07-25T00:45:16;5.75;;;5.20;;
11988;SDS011;6054;50.966;7.094;2022-07-25T00:47:44;5.90;;;5.43;;
11988;SDS011;6054;50.966;7.094;2022-07-25T00:50:11;5.82;;;5.30;;
11988;SDS011;6054;50.966;7.094;2022-07-25T00:52:38;7.10;;;5.45;;
11988;SDS011;6054;50.966;7.094;2022-07-25T00:55:05;5.32;;;4.72;;
11988;SDS011;6054;50.966;7.094;2022-07-25T00:57:32;6.00;;;5.50;;
11988;SDS011;6054;50.966;7.094;2022-07-25T00:59:59;5.90;;;5.32;;
11988;SDS011;6054;50.966;7.094;2022-07-25T01:02:26;5.50;;;5.00;;
11988;SDS011;6054;50.966;7.094;2022-07-25T01:04:54;5.85;;;5.35;;
11988;SDS011;6054;50.966;7.094;2022-07-25T01:07:22;6.32;;;5.70;;
11988;SDS011;6054;50.966;7.094;2022-07-25T01:09:50;5.60;;;5.20;;
11988;SDS011;6054;50.966;7.094;2022-07-25T01:12:17;5.95;;;5.30;;
11988;SDS011;6054;50.966;7.094;2022-07-25T01:14:44;5.60;;;5.07;;
11988;SDS011;6054;50.966;7.094;2022-07-25T01:17:10;5.53;;;5.03;;
11988;SDS011;6054;50.966;7.094;2022-07-25T01:19:38;7.05;;;5.95;;
11988;SDS011;6054;50.966;7.094;2022-07-25T01:22:06;6.07;;;5.47;;
11988;SDS011;6054;50.966;7.094;2022-07-25T01:24:33;5.75;;;5.25;;
11988;SDS011;6054;50.966;7.094;2022-07-25T01:27:00;6.38;;;5.63;;
11988;SDS011;6054;50.966;7.094;2022-07-25T01:29:27;5.60;;;5.18;;
11988;SDS011;6054;50.966;7.094;2022-07-25T01:31:54;6.63;;;5.90;;
11988;SDS011;6054;50.966;7.094;2022-07-25T01:34:21;6.22;;;4.82;;
11988;SDS011;6054;50.966;7.094;2022-07-25T01:36:47;7.13;;;5.28;;
11988;SDS011;6054;50.966;7.094;2022-07-25T01:39:16;6.18;;;5.53;;
11988;SDS011;6054;50.966;7.094;2022-07-25T01:41:42;5.63;;;5.15;;
11988;SDS011;6054;50.966;7.094;2022-07-25T01:44:09;6.82;;;6.22;;
11988;SDS011;6054;50.966;7.094;2022-07-25T01:46:36;7.85;;;5.60;;
11988;SDS011;6054;50.966;7.094;2022-07-25T01:49:03;6.18;;;5.18;;
11988;SDS011;6054;50.966;7.094;2022-07-25T01:51:30;5.60;;;5.10;;
11988;SDS011;6054;50.966;7.094;2022-07-25T01:53:57;5.95;;;5.45;;
11988;SDS011;6054;50.966;7.094;2022-07-25T01:56:25;8.73;;;5.53;;
11988;SDS011;6054;50.966;7.094;2022-07-25T01:58:52;5.80;;;5.32;;
11988;SDS011;6054;50.966;7.094;2022-07-25T02:01:18;6.10;;;5.50;;
11988;SDS011;6054;50.966;7.094;2022-07-25T02:03:45;5.70;;;5.10;;
11988;SDS011;6054;50.966;7.094;2022-07-25T02:06:12;6.00;;;5.40;;
11988;SDS011;6054;50.966;7.094;2022-07-25T02:08:39;14.93;;;5.88;;
11988;SDS011;6054;50.966;7.094;2022-07-25T02:11:05;6.00;;;5.50;;
11988;SDS011;6054;50.966;7.094;2022-07-25T02:13:34;6.00;;;5.50;;
11988;SDS011;6054;50.966;7.094;2022-07-25T02:16:01;5.60;;;5.10;;
11988;SDS011;6054;50.966;7.094;2022-07-25T02:18:28;5.72;;;5.22;;
11988;SDS011;6054;50.966;7.094;2022-07-25T02:20:54;6.10;;;5.60;;
11988;SDS011;6054;50.966;7.094;2022-07-25T02:23:21;5.53;;;5.00;;
11988;SDS011;6054;50.966;7.094;2022-07-25T02:25:48;6.35;;;5.75;;
11988;SDS011;6054;50.966;7.094;2022-07-25T02:28:15;6.40;;;5.78;;
11988;SDS011;6054;50.966;7.094;2022-07-25T02:30:43;7.07;;;6.38;;
11988;SDS011;6054;50.966;7.094;2022-07-25T02:33:10;5.88;;;5.38;;
11988;SDS011;6054;50.966;7.094;2022-07-25T02:35:37;6.90;;;6.30;;
11988;SDS011;6054;50.966;7.094;2022-07-25T02:38:03;8.35;;;6.30;;
11988;SDS011;6054;50.966;7.094;2022-07-25T02:40:30;5.90;;;5.43;;
11988;SDS011;6054;50.966;7.094;2022-07-25T02:42:57;6.05;;;5.43;;
11988;SDS011;6054;50.966;7.094;2022-07-25T02:45:24;6.20;;;5.60;;
11988;SDS011;6054;50.966;7.094;2022-07-25T02:47:52;5.93;;;5.43;;
11988;SDS011;6054;50.966;7.094;2022-07-25T02:50:19;6.38;;;5.78;;
11988;SDS011;6054;50.966;7.094;2022-07-25T02:52:46;5.70;;;5.28;;
11988;SDS011;6054;50.966;7.094;2022-07-25T02:55:12;6.00;;;5.55;;
11988;SDS011;6054;50.966;7.094;2022-07-25T02:57:39;6.30;;;5.80;;
11988;SDS011;6054;50.966;7.094;2022-07-25T03:00:07;7.05;;;6.22;;
11988;SDS011;6054;50.966;7.094;2022-07-25T03:02:34;5.90;;;5.40;;
11988;SDS011;6054;50.966;7.094;2022-07-25T03:05:04;6.63;;;6.03;;
11988;SDS011;6054;50.966;7.094;2022-07-25T03:07:32;6.22;;;5.63;;
11988;SDS011;6054;50.966;7.094;2022-07-25T03:09:59;5.82;;;5.43;;
11988;SDS011;6054;50.966;7.094;2022-07-25T03:12:26;6.78;;;6.18;;
11988;SDS011;6054;50.966;7.094;2022-07-25T03:14:53;7.35;;;5.53;;
11988;SDS011;6054;50.966;7.094;2022-07-25T03:17:19;6.85;;;6.18;;
11988;SDS011;6054;50.966;7.094;2022-07-25T03:19:46;6.72;;;6.13;;
11988;SDS011;6054;50.966;7.094;2022-07-25T03:22:14;6.22;;;5.70;;
11988;SDS011;6054;50.966;7.094;2022-07-25T03:24:41;6.40;;;5.80;;
11988;SDS011;6054;50.966;7.094;2022-07-25T03:27:08;6.97;;;6.32;;
11988;SDS011;6054;50.966;7.094;2022-07-25T03:29:35;6.70;;;6.05;;
11988;SDS011;6054;50.966;7.094;2022-07-25T03:32:02;6.72;;;6.13;;
11988;SDS011;6054;50.966;7.094;2022-07-25T03:34:29;5.90;;;5.40;;
11988;SDS011;6054;50.966;7.094;2022-07-25T03:36:56;6.85;;;5.53;;
11988;SDS011;6054;50.966;7.094;2022-07-25T03:39:25;6.45;;;5.88;;
11988;SDS011;6054;50.966;7.094;2022-07-25T03:41:53;7.85;;;6.13;;
11988;SDS011;6054;50.966;7.094;2022-07-25T03:44:20;6.60;;;5.93;;
11988;SDS011;6054;50.966;7.094;2022-07-25T03:46:47;7.68;;;6.47;;
11988;SDS011;6054;50.966;7.094;2022-07-25T03:49:14;6.32;;;5.55;;
11988;SDS011;6054;50.966;7.094;2022-07-25T03:51:41;6.30;;;5.70;;
11988;SDS011;6054;50.966;7.094;2022-07-25T03:54:08;6.45;;;5.95;;
11988;SDS011;6054;50.966;7.094;2022-07-25T03:56:39;6.68;;;6.05;;
11988;SDS011;6054;50.966;7.094;2022-07-25T03:59:08;6.05;;;5.45;;
11988;SDS011;6054;50.966;7.094;2022-07-25T04:01:36;5.78;;;5.30;;
11988;SDS011;6054;50.966;7.094;2022-07-25T04:04:03;6.18;;;5.63;;
11988;SDS011;6054;50.966;7.094;2022-07-25T04:06:30;6.10;;;5.60;;
11988;SDS011;6054;50.966;7.094;2022-07-25T04:08:57;6.30;;;5.72;;
11988;SDS011;6054;50.966;7.094;2022-07-25T04:11:24;6.72;;;6.13;;
11988;SDS011;6054;50.966;7.094;2022-07-25T04:13:53;6.18;;;5.57;;
11988;SDS011;6054;50.966;7.094;2022-07-25T04:16:20;6.15;;;5.55;;
11988;SDS011;6054;50.966;7.094;2022-07-25T04:18:47;6.40;;;5.90;;
11988;SDS011;6054;50.966;7.094;2022-07-25T04:21:14;6.65;;;6.00;;
11988;SDS011;6054;50.966;7.094;2022-07-25T04:23:41;6.38;;;5.78;;
11988;SDS011;6054;50.966;7.094;2022-07-25T04:26:08;6.47;;;5.88;;
11988;SDS011;6054;50.966;7.094;2022-07-25T04:28:35;6.25;;;5.75;;
11988;SDS011;6054;50.966;7.094;2022-07-25T04:31:03;6.30;;;5.80;;
11988;SDS011;6054;50.966;7.094;2022-07-25T04:33:30;6.22;;;5.65;;
11988;SDS011;6054;50.966;7.094;2022-07-25T04:35:57;6.68;;;6.03;;
11988;SDS011;6054;50.966;7.094;2022-07-25T04:38:24;6.03;;;5.53;;
11988;SDS011;6054;50.966;7.094;2022-07-25T04:40:50;6.75;;;5.85;;
11988;SDS011;6054;50.966;7.094;2022-07-25T04:43:18;6.97;;;5.53;;
11988;SDS011;6054;50.966;7.094;2022-07-25T04:45:45;6.22;;;5.60;;
11988;SDS011;6054;50.966;7.094;2022-07-25T04:48:14;6.80;;;6.30;;
11988;SDS011;6054;50.966;7.094;2022-07-25T04:50:41;6.38;;;5.82;;
11988;SDS011;6054;50.966;7.094;2022-07-25T04:53:07;6.78;;;6.25;;
11988;SDS011;6054;50.966;7.094;2022-07-25T04:55:34;6.63;;;6.03;;
11988;SDS011;6054;50.966;7.094;2022-07-25T04:58:03;8.15;;;6.40;;
11988;SDS011;6054;50.966;7.094;2022-07-25T05:00:30;6.50;;;5.93;;
11988;SDS011;6054;50.966;7.094;2022-07-25T05:02:57;6.35;;;5.85;;
11988;SDS011;6054;50.966;7.094;2022-07-25T05:05:25;6.63;;;6.03;;
11988;SDS011;6054;50.966;7.094;2022-07-25T05:07:54;6.60;;;6.00;;
11988;SDS011;6054;50.966;7.094;2022-07-25T05:10:22;7.68;;;5.95;;
11988;SDS011;6054;50.966;7.094;2022-07-25T05:12:49;7.07;;;6.10;;
11988;SDS011;6054;50.966;7.094;2022-07-25T05:15:15;6.63;;;6.10;;
11988;SDS011;6054;50.966;7.094;2022-07-25T05:17:42;5.80;;;5.30;;
11988;SDS011;6054;50.966;7.094;2022-07-25T05:20:10;6.50;;;5.85;;
11988;SDS011;6054;50.966;7.094;2022-07-25T05:22:38;6.40;;;5.85;;
11988;SDS011;6054;50.966;7.094;2022-07-25T05:25:06;6.65;;;5.97;;
11988;SDS011;6054;50.966;7.094;2022-07-25T05:27:34;5.75;;;5.25;;
11988;SDS011;6054;50.966;7.094;2022-07-25T05:30:00;6.00;;;5.43;;
11988;SDS011;6054;50.966;7.094;2022-07-25T05:32:28;7.85;;;5.93;;
11988;SDS011;6054;50.966;7.094;2022-07-25T05:34:55;6.28;;;5.78;;
11988;SDS011;6054;50.966;7.094;2022-07-25T05:37:21;8.68;;;5.70;;
11988;SDS011;6054;50.966;7.094;2022-07-25T05:39:50;6.78;;;5.70;;
11988;SDS011;6054;50.966;7.094;2022-07-25T05:42:16;6.25;;;5.65;;
11988;SDS011;6054;50.966;7.094;2022-07-25T05:44:43;6.55;;;5.45;;
11988;SDS011;6054;50.966;7.094;2022-07-25T05:47:10;6.43;;;5.82;;
11988;SDS011;6054;50.966;7.094;2022-07-25T05:49:37;6.25;;;5.65;;
11988;SDS011;6054;50.966;7.094;2022-07-25T05:52:04;5.28;;;4.43;;
11988;SDS011;6054;50.966;7.094;2022-07-25T05:54:31;5.35;;;4.85;;
11988;SDS011;6054;50.966;7.094;2022-07-25T05:57:00;11.45;;;5.30;;
11988;SDS011;6054;50.966;7.094;2022-07-25T05:59:27;7.10;;;5.18;;
11988;SDS011;6054;50.966;7.094;2022-07-25T06:01:54;5.53;;;5.05;;
11988;SDS011;6054;50.966;7.094;2022-07-25T06:04:21;7.05;;;4.75;;
11988;SDS011;6054;50.966;7.094;2022-07-25T06:06:48;5.70;;;5.20;;
11988;SDS011;6054;50.966;7.094;2022-07-25T06:09:16;5.78;;;5.18;;
11988;SDS011;6054;50.966;7.094;2022-07-25T06:11:43;5.32;;;4.88;;
11988;SDS011;6054;50.966;7.094;2022-07-25T06:14:11;5.20;;;4.70;;
11988;SDS011;6054;50.966;7.094;2022-07-25T06:16:38;5.75;;;4.88;;
11988;SDS011;6054;50.966;7.094;2022-07-25T06:19:05;5.30;;;4.80;;
11988;SDS011;6054;50.966;7.094;2022-07-25T06:21:32;5.63;;;4.68;;
11988;SDS011;6054;50.966;7.094;2022-07-25T06:23:59;5.18;;;4.78;;
11988;SDS011;6054;50.966;7.094;2022-07-25T06:26:26;5.20;;;4.80;;
11988;SDS011;6054;50.966;7.094;2022-07-25T06:28:53;5.30;;;4.85;;
11988;SDS011;6054;50.966;7.094;2022-07-25T06:31:21;5.15;;;4.75;;
11988;SDS011;6054;50.966;7.094;2022-07-25T06:33:48;6.95;;;4.88;;
11988;SDS011;6054;50.966;7.094;2022-07-25T06:36:14;5.75;;;5.25;;
11988;SDS011;6054;50.966;7.094;2022-07-25T06:38:41;5.50;;;5.10;;
11988;SDS011;6054;50.966;7.094;2022-07-25T06:41:12;5.55;;;4.68;;
11988;SDS011;6054;50.966;7.094;2022-07-25T06:43:40;5.38;;;4.90;;
11988;SDS011;6054;50.966;7.094;2022-07-25T06:46:07;6.93;;;4.68;;
11988;SDS011;6054;50.966;7.094;2022-07-25T06:48:35;5.43;;;4.93;;
11988;SDS011;6054;50.966;7.094;2022-07-25T06:51:02;5.45;;;4.95;;
11988;SDS011;6054;50.966;7.094;2022-07-25T06:53:29;5.53;;;4.82;;
11988;SDS011;6054;50.966;7.094;2022-07-25T06:55:56;5.50;;;5.00;;
11988;SDS011;6054;50.966;7.094;2022-07-25T06:58:23;5.15;;;4.75;;
11988;SDS011;6054;50.966;7.094;2022-07-25T07:00:57;5.65;;;5.07;;
11988;SDS011;6054;50.966;7.094;2022-07-25T07:03:25;5.50;;;5.00;;
11988;SDS011;6054;50.966;7.094;2022-07-25T07:05:53;4.93;;;4.55;;
11988;SDS011;6054;50.966;7.094;2022-07-25T07:08:20;6.13;;;5.60;;
11988;SDS011;6054;50.966;7.094;2022-07-25T07:10:47;7.18;;;5.10;;
11988;SDS011;6054;50.966;7.094;2022-07-25T07:13:14;7.55;;;5.20;;
11988;SDS011;6054;50.966;7.094;2022-07-25T07:15:45;5.35;;;4.88;;
11988;SDS011;6054;50.966;7.094;2022-07-25T07:18:14;4.97;;;4.68;;
11988;SDS011;6054;50.966;7.094;2022-07-25T07:20:41;6.38;;;5.35;;
11988;SDS011;6054;50.966;7.094;2022-07-25T07:23:09;5.70;;;5.20;;
11988;SDS011;6054;50.966;7.094;2022-07-25T07:25:38;6.30;;;5.10;;
11988;SDS011;6054;50.966;7.094;2022-07-25T07:28:05;6.10;;;5.50;;
11988;SDS011;6054;50.966;7.094;2022-07-25T07:30:32;8.07;;;5.25;;
11988;SDS011;6054;50.966;7.094;2022-07-25T07:32:59;5.85;;;5.35;;
11988;SDS011;6054;50.966;7.094;2022-07-25T07:35:26;7.50;;;5.30;;
11988;SDS011;6054;50.966;7.094;2022-07-25T07:37:53;6.20;;;4.88;;
11988;SDS011;6054;50.966;7.094;2022-07-25T07:40:24;7.05;;;4.70;;
11988;SDS011;6054;50.966;7.094;2022-07-25T07:42:53;9.25;;;5.22;;
11988;SDS011;6054;50.966;7.094;2022-07-25T07:45:22;12.95;;;5.40;;
11988;SDS011;6054;50.966;7.094;2022-07-25T07:47:51;7.47;;;5.70;;
11988;SDS011;6054;50.966;7.094;2022-07-25T07:50:20;6.45;;;5.05;;
11988;SDS011;6054;50.966;7.094;2022-07-25T07:52:49;8.05;;;5.18;;
11988;SDS011;6054;50.966;7.094;2022-07-25T07:55:17;5.82;;;4.82;;
11988;SDS011;6054;50.966;7.094;2022-07-25T07:58:03;6.18;;;4.63;;
11988;SDS011;6054;50.966;7.094;2022-07-25T08:00:31;5.65;;;4.85;;
11988;SDS011;6054;50.966;7.094;2022-07-25T08:03:00;5.95;;;5.40;;
11988;SDS011;6054;50.966;7.094;2022-07-25T08:05:29;7.50;;;5.25;;
11988;SDS011;6054;50.966;7.094;2022-07-25T08:07:58;6.07;;;5.43;;
11988;SDS011;6054;50.966;7.094;2022-07-25T08:10:26;8.75;;;5.18;;
11988;SDS011;6054;50.966;7.094;2022-07-25T08:12:55;5.25;;;4.75;;
11988;SDS011;6054;50.966;7.094;2022-07-25T08:15:23;8.73;;;5.38;;
11988;SDS011;6054;50.966;7.094;2022-07-25T08:17:51;7.03;;;5.63;;
11988;SDS011;6054;50.966;7.094;2022-07-25T08:20:18;8.25;;;5.43;;
11988;SDS011;6054;50.966;7.094;2022-07-25T08:22:47;6.10;;;5.50;;
11988;SDS011;6054;50.966;7.094;2022-07-25T08:25:15;6.07;;;5.47;;
11988;SDS011;6054;50.966;7.094;2022-07-25T08:27:43;5.72;;;5.32;;
11988;SDS011;6054;50.966;7.094;2022-07-25T08:30:11;7.70;;;5.15;;
11988;SDS011;6054;50.966;7.094;2022-07-25T08:32:47;6.05;;;5.50;;
11988;SDS011;6054;50.966;7.094;2022-07-25T08:35:15;5.88;;;5.38;;
11988;SDS011;6054;50.966;7.094;2022-07-25T08:37:42;5.78;;;5.28;;
11988;SDS011;6054;50.966;7.094;2022-07-25T08:40:09;5.65;;;5.15;;
11988;SDS011;6054;50.966;7.094;2022-07-25T08:42:37;5.07;;;4.72;;
11988;SDS011;6054;50.966;7.094;2022-07-25T08:45:04;5.68;;;5.13;;
11988;SDS011;6054;50.966;7.094;2022-07-25T08:47:33;5.57;;;5.03;;
11988;SDS011;6054;50.966;7.094;2022-07-25T08:50:03;5.47;;;4.97;;
11988;SDS011;6054;50.966;7.094;2022-07-25T08:52:31;6.03;;;5.18;;
11988;SDS011;6054;50.966;7.094;2022-07-25T08:55:00;7.50;;;5.18;;
11988;SDS011;6054;50.966;7.094;2022-07-25T08:57:28;5.82;;;5.38;;
11988;SDS011;6054;50.966;7.094;2022-07-25T08:59:58;5.72;;;5.22;;
11988;SDS011;6054;50.966;7.094;2022-07-25T09:02:25;5.35;;;4.90;;
11988;SDS011;6054;50.966;7.094;2022-07-25T09:04:52;5.90;;;5.47;;
11988;SDS011;6054;50.966;7.094;2022-07-25T09:07:31;5.93;;;5.30;;
11988;SDS011;6054;50.966;7.094;2022-07-25T09:10:10;5.72;;;5.28;;
11988;SDS011;6054;50.966;7.094;2022-07-25T09:12:38;5.75;;;5.32;;
11988;SDS011;6054;50.966;7.094;2022-07-25T09:15:05;6.20;;;5.60;;
11988;SDS011;6054;50.966;7.094;2022-07-25T09:17:34;6.60;;;5.68;;
11988;SDS011;6054;50.966;7.094;2022-07-25T09:20:01;6.00;;;5.10;;
11988;SDS011;6054;50.966;7.094;2022-07-25T09:22:28;7.28;;;5.60;;
11988;SDS011;6054;50.966;7.094;2022-07-25T09:24:57;7.05;;;5.22;;
11988;SDS011;6054;50.966;7.094;2022-07-25T09:27:23;6.65;;;5.65;;
11988;SDS011;6054;50.966;7.094;2022-07-25T09:29:50;6.70;;;5.55;;
11988;SDS011;6054;50.966;7.094;2022-07-25T09:32:18;6.00;;;5.40;;
11988;SDS011;6054;50.966;7.094;2022-07-25T09:34:46;8.48;;;5.05;;
11988;SDS011;6054;50.966;7.094;2022-07-25T09:37:15;7.57;;;5.10;;
11988;SDS011;6054;50.966;7.094;2022-07-25T09:39:46;7.20;;;5.43;;
11988;SDS011;6054;50.966;7.094;2022-07-25T09:42:14;5.82;;;5.32;;
11988;SDS011;6054;50.966;7.094;2022-07-25T09:44:42;6.43;;;5.53;;
11988;SDS011;6054;50.966;7.094;2022-07-25T09:47:11;6.40;;;5.90;;
11988;SDS011;6054;50.966;7.094;2022-07-25T09:49:40;6.65;;;5.55;;
11988;SDS011;6054;50.966;7.094;2022-07-25T09:52:08;5.78;;;5.32;;
11988;SDS011;6054;50.966;7.094;2022-07-25T09:54:36;6.05;;;5.55;;
11988;SDS011;6054;50.966;7.094;2022-07-25T09:57:05;6.32;;;5.65;;
11988;SDS011;6054;50.966;7.094;2022-07-25T09:59:31;6.65;;;5.70;;
11988;SDS011;6054;50.966;7.094;2022-07-25T10:01:59;6.20;;;5.60;;
11988;SDS011;6054;50.966;7.094;2022-07-25T10:04:36;6.22;;;5.72;;
11988;SDS011;6054;50.966;7.094;2022-07-25T10:07:11;8.57;;;5.38;;
11988;SDS011;6054;50.966;7.094;2022-07-25T10:09:43;9.52;;;5.22;;
11988;SDS011;6054;50.966;7.094;2022-07-25T10:12:13;6.97;;;5.72;;
11988;SDS011;6054;50.966;7.094;2022-07-25T10:15:04;6.60;;;5.93;;
11988;SDS011;6054;50.966;7.094;2022-07-25T10:17:33;6.75;;;5.53;;
11988;SDS011;6054;50.966;7.094;2022-07-25T10:20:00;7.13;;;6.20;;
11988;SDS011;6054;50.966;7.094;2022-07-25T10:22:40;6.75;;;5.07;;
11988;SDS011;6054;50.966;7.094;2022-07-25T10:25:12;5.85;;;5.32;;
11988;SDS011;6054;50.966;7.094;2022-07-25T10:27:44;8.10;;;5.38;;
11988;SDS011;6054;50.966;7.094;2022-07-25T10:30:19;5.90;;;5.38;;
11988;SDS011;6054;50.966;7.094;2022-07-25T10:32:48;7.90;;;6.10;;
11988;SDS011;6054;50.966;7.094;2022-07-25T10:35:16;6.38;;;5.78;;
11988;SDS011;6054;50.966;7.094;2022-07-25T10:37:44;9.25;;;5.78;;
11988;SDS011;6054;50.966;7.094;2022-07-25T10:40:23;8.13;;;5.57;;
11988;SDS011;6054;50.966;7.094;2022-07-25T10:42:59;5.30;;;4.90;;
11988;SDS011;6054;50.966;7.094;2022-07-25T10:45:32;7.88;;;5.45;;
11988;SDS011;6054;50.966;7.094;2022-07-25T10:48:05;6.18;;;5.15;;
11988;SDS011;6054;50.966;7.094;2022-07-25T10:50:33;6.95;;;5.68;;
11988;SDS011;6054;50.966;7.094;2022-07-25T10:53:00;9.32;;;6.00;;
11988;SDS011;6054;50.966;7.094;2022-07-25T10:55:31;6.10;;;5.50;;
11988;SDS011;6054;50.966;7.094;2022-07-25T10:58:02;7.78;;;5.70;;
11988;SDS011;6054;50.966;7.094;2022-07-25T11:00:31;6.07;;;5.57;;
11988;SDS011;6054;50.966;7.094;2022-07-25T11:02:58;6.45;;;5.85;;
11988;SDS011;6054;50.966;7.094;2022-07-25T11:05:25;9.00;;;5.90;;
11988;SDS011;6054;50.966;7.094;2022-07-25T11:07:54;8.05;;;5.88;;
11988;SDS011;6054;50.966;7.094;2022-07-25T11:10:24;5.88;;;5.35;;
11988;SDS011;6054;50.966;7.094;2022-07-25T11:12:53;6.70;;;6.05;;
11988;SDS011;6054;50.966;7.094;2022-07-25T11:15:22;7.28;;;4.90;;
11988;SDS011;6054;50.966;7.094;2022-07-25T11:17:50;8.57;;;5.88;;
11988;SDS011;6054;50.966;7.094;2022-07-25T11:20:17;5.72;;;5.22;;
11988;SDS011;6054;50.966;7.094;2022-07-25T11:22:49;6.35;;;5.60;;
11988;SDS011;6054;50.966;7.094;2022-07-25T11:25:19;8.32;;;5.15;;
11988;SDS011;6054;50.966;7.094;2022-07-25T11:27:54;7.45;;;5.40;;
11988;SDS011;6054;50.966;7.094;2022-07-25T11:30:24;5.90;;;4.82;;
11988;SDS011;6054;50.966;7.094;2022-07-25T11:32:53;16.42;;;5.10;;
11988;SDS011;6054;50.966;7.094;2022-07-25T11:35:21;5.30;;;4.80;;
11988;SDS011;6054;50.966;7.094;2022-07-25T11:37:51;6.70;;;5.15;;
11988;SDS011;6054;50.966;7.094;2022-07-25T11:40:19;8.30;;;5.20;;
11988;SDS011;6054;50.966;7.094;2022-07-25T11:42:47;5.97;;;5.25;;
11988;SDS011;6054;50.966;7.094;2022-07-25T11:45:16;5.95;;;5.28;;
11988;SDS011;6054;50.966;7.094;2022-07-25T11:47:45;5.55;;;5.05;;
11988;SDS011;6054;50.966;7.094;2022-07-25T11:50:13;5.57;;;4.95;;
11988;SDS011;6054;50.966;7.094;2022-07-25T11:52:40;7.60;;;4.75;;
11988;SDS011;6054;50.966;7.094;2022-07-25T11:55:13;5.18;;;4.68;;
11988;SDS011;6054;50.966;7.094;2022-07-25T11:57:45;5.70;;;4.85;;
11988;SDS011;6054;50.966;7.094;2022-07-25T12:00:14;8.88;;;4.85;;
11988;SDS011;6054;50.966;7.094;2022-07-25T12:02:42;6.57;;;4.82;;
11988;SDS011;6054;50.966;7.094;2022-07-25T12:05:12;5.18;;;4.70;;
11988;SDS011;6054;50.966;7.094;2022-07-25T12:07:40;4.82;;;4.43;;
11988;SDS011;6054;50.966;7.094;2022-07-25T12:10:10;6.63;;;4.38;;
11988;SDS011;6054;50.966;7.094;2022-07-25T12:12:41;5.95;;;4.43;;
11988;SDS011;6054;50.966;7.094;2022-07-25T12:15:09;6.80;;;4.78;;
11988;SDS011;6054;50.966;7.094;2022-07-25T12:17:37;7.13;;;4.35;;
11988;SDS011;6054;50.966;7.094;2022-07-25T12:20:09;5.07;;;4.57;;
11988;SDS011;6054;50.966;7.094;2022-07-25T12:22:40;4.53;;;4.13;;
11988;SDS011;6054;50.966;7.094;2022-07-25T12:25:08;4.50;;;4.05;;
11988;SDS011;6054;50.966;7.094;2022-07-25T12:27:35;4.15;;;3.63;;
11988;SDS011;6054;50.966;7.094;2022-07-25T12:30:02;5.50;;;3.55;;
11988;SDS011;6054;50.966;7.094;2022-07-25T12:32:29;7.28;;;4.15;;
11988;SDS011;6054;50.966;7.094;2022-07-25T12:34:57;4.82;;;3.70;;
11988;SDS011;6054;50.966;7.094;2022-07-25T12:37:25;4.78;;;3.90;;
11988;SDS011;6054;50.966;7.094;2022-07-25T12:39:52;4.30;;;3.95;;
11988;SDS011;6054;50.966;7.094;2022-07-25T12:42:19;3.97;;;3.60;;
11988;SDS011;6054;50.966;7.094;2022-07-25T12:44:46;5.32;;;3.42;;
11988;SDS011;6054;50.966;7.094;2022-07-25T12:47:12;4.05;;;3.30;;
11988;SDS011;6054;50.966;7.094;2022-07-25T12:49:39;4.97;;;3.97;;
11988;SDS011;6054;50.966;7.094;2022-07-25T12:52:06;6.47;;;3.55;;
11988;SDS011;6054;50.966;7.094;2022-07-25T12:54:34;3.58;;;3.08;;
11988;SDS011;6054;50.966;7.094;2022-07-25T12:57:02;5.15;;;3.40;;
11988;SDS011;6054;50.966;7.094;2022-07-25T12:59:29;5.95;;;3.35;;
11988;SDS011;6054;50.966;7.094;2022-07-25T13:01:57;12.95;;;3.38;;
11988;SDS011;6054;50.966;7.094;2022-07-25T13:04:24;4.13;;;3.70;;
11988;SDS011;6054;50.966;7.094;2022-07-25T13:06:51;7.60;;;3.70;;
11988;SDS011;6054;50.966;7.094;2022-07-25T13:09:19;4.90;;;3.10;;
11988;SDS011;6054;50.966;7.094;2022-07-25T13:11:47;5.95;;;2.85;;
11988;SDS011;6054;50.966;7.094;2022-07-25T13:14:15;3.30;;;3.00;;
11988;SDS011;6054;50.966;7.094;2022-07-25T13:16:42;8.63;;;3.28;;
11988;SDS011;6054;50.966;7.094;2022-07-25T13:19:09;5.10;;;3.17;;
11988;SDS011;6054;50.966;7.094;2022-07-25T13:21:38;5.43;;;3.40;;
11988;SDS011;6054;50.966;7.094;2022-07-25T13:24:05;5.40;;;3.20;;
11988;SDS011;6054;50.966;7.094;2022-07-25T13:26:32;4.78;;;3.20;;
11988;SDS011;6054;50.966;7.094;2022-07-25T13:29:01;4.35;;;2.95;;
11988;SDS011;6054;50.966;7.094;2022-07-25T13:31:32;7.35;;;3.22;;
11988;SDS011;6054;50.966;7.094;2022-07-25T13:33:59;5.15;;;2.90;;
11988;SDS011;6054;50.966;7.094;2022-07-25T13:36:26;5.07;;;2.83;;
11988;SDS011;6054;50.966;7.094;2022-07-25T13:38:53;3.40;;;2.80;;
11988;SDS011;6054;50.966;7.094;2022-07-25T13:41:19;8.13;;;2.40;;
11988;SDS011;6054;50.966;7.094;2022-07-25T13:43:46;3.17;;;2.60;;
11988;SDS011;6054;50.966;7.094;2022-07-25T13:46:14;3.05;;;2.60;;
11988;SDS011;6054;50.966;7.094;2022-07-25T13:48:41;9.18;;;3.67;;
11988;SDS011;6054;50.966;7.094;2022-07-25T13:51:08;5.38;;;2.53;;
11988;SDS011;6054;50.966;7.094;2022-07-25T13:53:35;4.15;;;2.80;;
11988;SDS011;6054;50.966;7.094;2022-07-25T13:56:03;4.03;;;2.40;;
11988;SDS011;6054;50.966;7.094;2022-07-25T13:58:30;3.45;;;2.30;;
11988;SDS011;6054;50.966;7.094;2022-07-25T14:00:57;6.40;;;2.50;;
11988;SDS011;6054;50.966;7.094;2022-07-25T14:03:25;4.35;;;2.22;;
11988;SDS011;6054;50.966;7.094;2022-07-25T14:05:53;2.92;;;2.35;;
11988;SDS011;6054;50.966;7.094;2022-07-25T14:08:20;7.13;;;2.17;;
11988;SDS011;6054;50.966;7.094;2022-07-25T14:10:47;5.68;;;2.05;;
11988;SDS011;6054;50.966;7.094;2022-07-25T14:13:14;2.78;;;2.20;;
11988;SDS011;6054;50.966;7.094;2022-07-25T14:15:41;3.78;;;2.00;;
11988;SDS011;6054;50.966;7.094;2022-07-25T14:18:08;6.60;;;2.00;;
11988;SDS011;6054;50.966;7.094;2022-07-25T14:20:37;4.15;;;1.95;;
11988;SDS011;6054;50.966;7.094;2022-07-25T14:23:04;4.38;;;2.10;;
11988;SDS011;6054;50.966;7.094;2022-07-25T14:25:31;5.57;;;2.00;;
11988;SDS011;6054;50.966;7.094;2022-07-25T14:28:00;2.20;;;1.95;;
11988;SDS011;6054;50.966;7.094;2022-07-25T14:30:27;4.22;;;2.00;;
11988;SDS011;6054;50.966;7.094;2022-07-25T14:32:54;2.08;;;1.85;;
11988;SDS011;6054;50.966;7.094;2022-07-25T14:35:21;5.22;;;2.00;;
11988;SDS011;6054;50.966;7.094;2022-07-25T14:37:51;6.18;;;1.95;;
11988;SDS011;6054;50.966;7.094;2022-07-25T14:40:18;5.63;;;1.73;;
11988;SDS011;6054;50.966;7.094;2022-07-25T14:42:45;5.38;;;2.15;;
11988;SDS011;6054;50.966;7.094;2022-07-25T14:45:13;6.07;;;2.20;;
11988;SDS011;6054;50.966;7.094;2022-07-25T14:47:42;2.17;;;1.98;;
11988;SDS011;6054;50.966;7.094;2022-07-25T14:50:09;3.55;;;2.08;;
11988;SDS011;6054;50.966;7.094;2022-07-25T14:52:35;2.30;;;2.10;;
11988;SDS011;6054;50.966;7.094;2022-07-25T14:55:07;3.55;;;2.00;;
11988;SDS011;6054;50.966;7.094;2022-07-25T14:57:34;4.00;;;2.45;;
11988;SDS011;6054;50.966;7.094;2022-07-25T15:00:02;2.55;;;1.85;;
11988;SDS011;6054;50.966;7.094;2022-07-25T15:02:30;6.20;;;1.90;;
11988;SDS011;6054;50.966;7.094;2022-07-25T15:04:57;4.25;;;1.83;;